createdAt,value
2022-12-17T08:32:58.005Z,18.59
2022-12-17T08:33:09.319Z,18.62
2022-12-17T08:33:20.873Z,18.67
2022-12-17T08:33:32.160Z,18.69
2022-12-17T08:33:43.707Z,18.71
2022-12-17T08:33:54.995Z,18.73
2022-12-17T08:34:08.161Z,18.75
2022-12-17T08:34:17.594Z,18.76
2022-12-17T08:34:29.149Z,18.78
2022-12-17T08:34:40.450Z,18.79
2022-12-17T08:34:51.978Z,18.81
2022-12-17T08:35:03.279Z,18.81
2022-12-17T08:35:14.831Z,18.83
2022-12-17T08:35:26.126Z,18.85
2022-12-17T08:35:37.685Z,18.86
2022-12-17T08:35:48.993Z,18.87
2022-12-17T08:36:00.544Z,18.88
2022-12-17T08:36:11.840Z,18.89
2022-12-17T08:36:23.382Z,18.91
2022-12-17T08:36:34.676Z,18.92
2022-12-17T08:36:46.219Z,18.94
2022-12-17T08:36:57.515Z,18.95
2022-12-17T08:37:09.059Z,18.96
2022-12-17T08:37:20.346Z,18.97
2022-12-17T08:37:31.904Z,18.98
2022-12-17T08:37:43.198Z,19.00
2022-12-17T08:37:54.741Z,19.01
2022-12-17T08:38:06.053Z,19.02
2022-12-17T08:38:17.588Z,19.03
2022-12-17T08:38:28.862Z,19.04
2022-12-17T08:38:40.393Z,19.05
2022-12-17T08:38:51.681Z,19.06
2022-12-17T08:39:03.962Z,19.07
2022-12-17T08:39:15.251Z,19.09
2022-12-17T08:39:26.813Z,19.10
2022-12-17T08:39:38.084Z,19.10
2022-12-17T08:39:49.616Z,19.13
2022-12-17T08:40:00.893Z,19.13
2022-12-17T08:40:12.427Z,19.14
2022-12-17T08:40:23.705Z,19.15
2022-12-17T08:40:35.236Z,19.17
2022-12-17T08:40:46.521Z,19.17
2022-12-17T08:40:58.064Z,19.18
2022-12-17T08:41:09.351Z,19.19
2022-12-17T08:41:20.894Z,19.20
2022-12-17T08:41:32.195Z,19.22
2022-12-17T08:41:43.745Z,19.23
2022-12-17T08:41:58.455Z,19.24
2022-12-17T08:42:06.956Z,19.22
2022-12-17T08:42:18.242Z,19.23
2022-12-17T08:42:29.776Z,19.25
2022-12-17T08:42:41.098Z,19.26
2022-12-17T08:42:52.634Z,19.28
2022-12-17T08:43:03.906Z,19.28
2022-12-17T08:43:15.525Z,19.30
2022-12-17T08:43:26.816Z,19.30
2022-12-17T08:43:38.743Z,19.32
2022-12-17T08:43:50.702Z,19.34
2022-12-17T08:44:01.982Z,19.33
2022-12-17T08:44:13.521Z,19.34
2022-12-17T08:44:24.815Z,19.35
2022-12-17T08:44:36.367Z,19.36
2022-12-17T08:44:47.647Z,19.37
2022-12-17T08:44:59.188Z,19.38
2022-12-17T08:45:10.461Z,19.39
2022-12-17T08:45:22.001Z,19.40
2022-12-17T08:45:33.351Z,19.41
2022-12-17T08:45:44.957Z,19.42
2022-12-17T08:45:56.320Z,19.43
2022-12-17T08:46:07.987Z,19.43
2022-12-17T08:46:19.371Z,19.44
2022-12-17T08:46:31.053Z,19.45
2022-12-17T08:46:42.370Z,19.45
2022-12-17T08:46:53.932Z,19.46
2022-12-17T08:47:05.218Z,19.47
2022-12-17T08:47:16.765Z,19.48
2022-12-17T08:47:28.046Z,19.49
2022-12-17T08:47:39.585Z,19.49
2022-12-17T08:47:50.880Z,19.50
2022-12-17T08:48:04.226Z,19.51
2022-12-17T08:48:13.615Z,19.52
2022-12-17T08:48:25.200Z,19.53
2022-12-17T08:48:36.497Z,19.53
2022-12-17T08:48:48.059Z,19.54
2022-12-17T08:48:59.348Z,19.55
2022-12-17T08:49:10.900Z,19.56
2022-12-17T08:49:22.200Z,19.56
2022-12-17T08:49:33.758Z,19.56
2022-12-17T08:49:45.054Z,19.58
2022-12-17T08:49:56.608Z,19.59
2022-12-17T08:50:07.883Z,19.59
2022-12-17T08:50:19.430Z,19.61
2022-12-17T08:50:30.726Z,19.61
2022-12-17T08:50:42.303Z,19.62
2022-12-17T08:50:53.625Z,19.62
2022-12-17T08:51:05.171Z,19.63
2022-12-17T08:51:16.515Z,19.63
2022-12-17T08:51:28.079Z,19.64
2022-12-17T08:51:39.364Z,19.65
2022-12-17T08:51:50.909Z,19.66
2022-12-17T08:52:02.190Z,19.67
2022-12-17T08:52:13.849Z,19.68
2022-12-17T08:52:25.189Z,19.68
2022-12-17T08:52:36.729Z,19.69
2022-12-17T08:52:48.015Z,19.70
2022-12-17T08:52:59.567Z,19.71
2022-12-17T08:53:10.867Z,19.72
2022-12-17T08:53:22.430Z,19.72
2022-12-17T08:53:35.211Z,19.73
2022-12-17T08:53:44.565Z,19.73
2022-12-17T08:53:56.111Z,19.74
2022-12-17T08:54:07.384Z,19.75
2022-12-17T08:54:18.926Z,19.76
2022-12-17T08:54:30.230Z,19.76
2022-12-17T08:54:41.775Z,19.78
2022-12-17T08:54:53.061Z,19.78
2022-12-17T08:55:04.612Z,19.78
2022-12-17T08:55:15.905Z,19.80
2022-12-17T08:55:27.453Z,19.81
2022-12-17T08:55:38.743Z,19.81
2022-12-17T08:55:50.282Z,19.82
2022-12-17T08:56:01.563Z,19.82
2022-12-17T08:56:13.095Z,19.83
2022-12-17T08:56:24.381Z,19.84
2022-12-17T08:56:35.934Z,19.85
2022-12-17T08:56:47.229Z,19.85
2022-12-17T08:56:58.775Z,19.87
2022-12-17T08:57:10.051Z,19.87
2022-12-17T08:57:31.433Z,19.88
2022-12-17T08:57:33.991Z,19.87
2022-12-17T08:57:45.274Z,19.88
2022-12-17T08:57:56.818Z,19.89
2022-12-17T08:58:08.092Z,19.90
2022-12-17T08:58:19.632Z,19.91
2022-12-17T08:58:30.920Z,19.92
2022-12-17T08:58:42.498Z,19.92
2022-12-17T08:58:58.934Z,19.93
2022-12-17T08:59:05.699Z,19.91
2022-12-17T08:59:16.989Z,19.93
2022-12-17T08:59:28.571Z,19.94
2022-12-17T08:59:39.847Z,19.96
2022-12-17T08:59:51.380Z,19.97
2022-12-17T09:00:02.656Z,19.97
2022-12-17T09:00:14.200Z,19.98
2022-12-17T09:00:25.492Z,19.99
2022-12-17T09:00:37.037Z,19.99
2022-12-17T09:00:48.312Z,20.00
2022-12-17T09:00:59.939Z,20.01
2022-12-17T09:01:11.368Z,20.01
2022-12-17T09:01:23.189Z,20.02
2022-12-17T09:01:34.738Z,20.03
2022-12-17T09:01:46.526Z,20.03
2022-12-17T09:01:58.065Z,20.04
2022-12-17T09:02:09.989Z,20.04
2022-12-17T09:02:20.220Z,20.06
2022-12-17T09:02:32.168Z,20.06
2022-12-17T09:02:43.840Z,20.07
2022-12-17T09:02:55.652Z,20.07
2022-12-17T09:03:07.191Z,20.08
2022-12-17T09:03:18.865Z,20.08
2022-12-17T09:03:30.293Z,20.09
2022-12-17T09:03:42.127Z,20.10
2022-12-17T09:03:53.551Z,20.10
2022-12-17T09:04:05.098Z,20.11
2022-12-17T09:04:16.395Z,20.11
2022-12-17T09:04:27.948Z,20.12
2022-12-17T09:04:39.248Z,20.13
2022-12-17T09:04:50.785Z,20.13
2022-12-17T09:05:02.072Z,20.14
2022-12-17T09:05:13.633Z,20.15
2022-12-17T09:05:24.910Z,20.15
2022-12-17T09:05:36.454Z,20.16
2022-12-17T09:05:47.754Z,20.17
2022-12-17T09:05:59.301Z,20.17
2022-12-17T09:06:10.584Z,20.18
2022-12-17T09:06:22.128Z,20.18
2022-12-17T09:06:38.736Z,20.19
2022-12-17T09:06:45.332Z,20.17
2022-12-17T09:06:56.620Z,20.19
2022-12-17T09:07:08.176Z,20.20
2022-12-17T09:07:19.473Z,20.21
2022-12-17T09:07:31.018Z,20.21
2022-12-17T09:07:42.308Z,20.23
2022-12-17T09:07:53.859Z,20.23
2022-12-17T09:08:05.139Z,20.24
2022-12-17T09:08:16.696Z,20.25
2022-12-17T09:08:27.978Z,20.25
2022-12-17T09:08:39.519Z,20.26
2022-12-17T09:08:50.814Z,20.26
2022-12-17T09:09:02.414Z,20.27
2022-12-17T09:09:13.698Z,20.28
2022-12-17T09:09:25.246Z,20.28
2022-12-17T09:09:36.526Z,20.29
2022-12-17T09:09:48.073Z,20.29
2022-12-17T09:09:59.358Z,20.30
2022-12-17T09:10:10.899Z,20.30
2022-12-17T09:10:22.286Z,20.30
2022-12-17T09:10:33.864Z,20.31
2022-12-17T09:10:45.192Z,20.32
2022-12-17T09:10:56.724Z,20.33
2022-12-17T09:11:08.003Z,20.33
2022-12-17T09:11:19.544Z,20.34
2022-12-17T09:11:30.845Z,20.34
2022-12-17T09:11:42.382Z,20.36
2022-12-17T09:11:53.663Z,20.36
2022-12-17T09:12:05.685Z,20.37
2022-12-17T09:12:16.976Z,20.37
2022-12-17T09:12:28.516Z,20.37
2022-12-17T09:12:39.801Z,20.38
2022-12-17T09:12:51.349Z,20.39
2022-12-17T09:13:04.959Z,20.39
2022-12-17T09:13:14.490Z,20.38
2022-12-17T09:13:26.021Z,20.40
2022-12-17T09:13:37.716Z,20.40
2022-12-17T09:13:49.547Z,20.41
2022-12-17T09:14:00.832Z,20.42
2022-12-17T09:14:12.434Z,20.41
2022-12-17T09:14:23.720Z,20.43
2022-12-17T09:14:35.268Z,20.43
2022-12-17T09:14:46.546Z,20.43
2022-12-17T09:14:58.114Z,20.44
2022-12-17T09:15:09.402Z,20.45
2022-12-17T09:15:20.954Z,20.45
2022-12-17T09:15:32.259Z,20.46
2022-12-17T09:15:43.826Z,20.46
2022-12-17T09:15:55.112Z,20.47
2022-12-17T09:16:06.659Z,20.47
2022-12-17T09:16:17.993Z,20.48
2022-12-17T09:16:29.596Z,20.48
2022-12-17T09:16:41.090Z,20.48
2022-12-17T09:16:52.703Z,20.49
2022-12-17T09:17:04.201Z,20.49
2022-12-17T09:17:15.806Z,20.50
2022-12-17T09:17:27.101Z,20.51
2022-12-17T09:17:38.648Z,20.52
2022-12-17T09:17:49.930Z,20.52
2022-12-17T09:18:01.474Z,20.53
2022-12-17T09:18:12.788Z,20.53
2022-12-17T09:18:24.326Z,20.53
2022-12-17T09:18:35.612Z,20.54
2022-12-17T09:18:47.157Z,20.54
2022-12-17T09:18:58.454Z,20.55
2022-12-17T09:19:10.003Z,20.55
2022-12-17T09:19:22.158Z,20.57
2022-12-17T09:19:33.441Z,20.57
2022-12-17T09:19:44.986Z,20.58
2022-12-17T09:19:56.278Z,20.58
2022-12-17T09:20:07.845Z,20.58
2022-12-17T09:20:19.125Z,20.58
2022-12-17T09:20:30.780Z,20.59
2022-12-17T09:20:42.080Z,20.59
2022-12-17T09:20:53.625Z,20.59
2022-12-17T09:21:04.916Z,20.60
2022-12-17T09:21:16.477Z,20.61
2022-12-17T09:21:27.765Z,20.61
2022-12-17T09:21:39.321Z,20.62
2022-12-17T09:21:50.604Z,20.61
2022-12-17T09:22:02.160Z,20.63
2022-12-17T09:22:13.452Z,20.63
2022-12-17T09:22:24.994Z,20.63
2022-12-17T09:22:36.269Z,20.63
2022-12-17T09:22:47.813Z,20.64
2022-12-17T09:22:59.111Z,20.65
2022-12-17T09:23:10.649Z,20.65
2022-12-17T09:23:21.943Z,20.65
2022-12-17T09:23:33.746Z,20.66
2022-12-17T09:23:45.194Z,20.66
2022-12-17T09:23:56.735Z,20.67
2022-12-17T09:24:08.018Z,20.68
2022-12-17T09:24:19.567Z,20.68
2022-12-17T09:24:30.903Z,20.68
2022-12-17T09:24:42.459Z,20.68
2022-12-17T09:24:53.763Z,20.70
2022-12-17T09:25:05.309Z,20.70
2022-12-17T09:25:16.613Z,20.71
2022-12-17T09:25:28.187Z,20.71
2022-12-17T09:25:39.502Z,20.72
2022-12-17T09:25:55.051Z,20.72
2022-12-17T09:26:02.975Z,20.72
2022-12-17T09:26:14.259Z,20.73
2022-12-17T09:26:25.792Z,20.74
2022-12-17T09:26:37.087Z,20.75
2022-12-17T09:26:48.641Z,20.76
2022-12-17T09:26:59.931Z,20.75
2022-12-17T09:27:11.473Z,20.76
2022-12-17T09:27:22.767Z,20.76
2022-12-17T09:27:34.302Z,20.77
2022-12-17T09:27:45.589Z,20.78
2022-12-17T09:27:57.139Z,20.78
2022-12-17T09:28:08.445Z,20.78
2022-12-17T09:28:19.990Z,20.80
2022-12-17T09:28:31.285Z,20.80
2022-12-17T09:28:42.844Z,20.81
2022-12-17T09:28:54.142Z,20.81
2022-12-17T09:29:05.819Z,20.82
2022-12-17T09:29:17.153Z,20.82
2022-12-17T09:29:28.729Z,20.82
2022-12-17T09:29:40.036Z,20.82
2022-12-17T09:29:51.571Z,20.83
2022-12-17T09:30:02.849Z,20.83
2022-12-17T09:30:14.389Z,20.84
2022-12-17T09:30:25.753Z,20.85
2022-12-17T09:30:37.534Z,20.85
2022-12-17T09:30:49.002Z,20.85
2022-12-17T09:31:00.684Z,20.86
2022-12-17T09:31:12.124Z,20.86
2022-12-17T09:31:23.730Z,20.87
2022-12-17T09:31:37.541Z,20.87
2022-12-17T09:31:47.004Z,20.86
2022-12-17T09:31:58.551Z,20.87
2022-12-17T09:32:09.822Z,20.88
2022-12-17T09:32:21.366Z,20.88
2022-12-17T09:32:32.651Z,20.89
2022-12-17T09:32:44.208Z,20.90
2022-12-17T09:32:55.493Z,20.90
2022-12-17T09:33:07.047Z,20.91
2022-12-17T09:33:18.368Z,20.90
2022-12-17T09:33:29.926Z,20.92
2022-12-17T09:33:41.217Z,20.92
2022-12-17T09:33:52.763Z,20.93
2022-12-17T09:34:04.047Z,20.92
2022-12-17T09:34:15.600Z,20.94
2022-12-17T09:34:26.896Z,20.94
2022-12-17T09:34:38.447Z,20.94
2022-12-17T09:34:49.946Z,20.94
2022-12-17T09:35:01.498Z,20.95
2022-12-17T09:35:12.785Z,20.96
2022-12-17T09:35:24.316Z,20.97
2022-12-17T09:35:35.606Z,20.97
2022-12-17T09:35:47.149Z,20.98
2022-12-17T09:35:58.459Z,20.98
2022-12-17T09:36:10.045Z,20.99
2022-12-17T09:36:21.327Z,21.00
2022-12-17T09:36:32.870Z,21.01
2022-12-17T09:36:49.551Z,21.01
2022-12-17T09:36:56.084Z,20.99
2022-12-17T09:37:07.365Z,21.01
2022-12-17T09:37:18.895Z,21.03
2022-12-17T09:37:30.178Z,21.03
2022-12-17T09:37:41.724Z,21.04
2022-12-17T09:37:53.028Z,21.05
2022-12-17T09:38:04.578Z,21.06
2022-12-17T09:38:15.871Z,21.06
2022-12-17T09:38:27.431Z,21.07
2022-12-17T09:38:38.732Z,21.07
2022-12-17T09:38:50.281Z,21.08
2022-12-17T09:39:01.569Z,21.08
2022-12-17T09:39:13.105Z,21.09
2022-12-17T09:39:24.399Z,21.09
2022-12-17T09:39:35.938Z,21.10
2022-12-17T09:39:47.217Z,21.10
2022-12-17T09:39:58.793Z,21.10
2022-12-17T09:40:10.113Z,21.10
2022-12-17T09:40:21.679Z,21.11
2022-12-17T09:40:32.966Z,21.11
2022-12-17T09:40:44.494Z,21.12
2022-12-17T09:40:55.776Z,21.13
2022-12-17T09:41:07.330Z,21.13
2022-12-17T09:41:18.638Z,21.13
2022-12-17T09:41:30.175Z,21.14
2022-12-17T09:41:41.454Z,21.15
2022-12-17T09:41:52.985Z,21.15
2022-12-17T09:42:04.271Z,21.16
2022-12-17T09:42:15.829Z,21.16
2022-12-17T09:42:27.130Z,21.16
2022-12-17T09:42:38.719Z,21.17
2022-12-17T09:42:52.493Z,21.17
2022-12-17T09:43:01.536Z,21.15
2022-12-17T09:43:12.824Z,21.17
2022-12-17T09:43:24.385Z,21.18
2022-12-17T09:43:36.213Z,21.18
2022-12-17T09:43:47.903Z,21.19
2022-12-17T09:43:59.191Z,21.19
2022-12-17T09:44:10.734Z,21.19
2022-12-17T09:44:22.025Z,21.20
2022-12-17T09:44:33.565Z,21.20
2022-12-17T09:44:44.841Z,21.20
2022-12-17T09:44:56.451Z,21.21
2022-12-17T09:45:07.783Z,21.21
2022-12-17T09:45:19.332Z,21.22
2022-12-17T09:45:30.630Z,21.22
2022-12-17T09:45:42.182Z,21.22
2022-12-17T09:45:53.517Z,21.23
2022-12-17T09:46:05.123Z,21.23
2022-12-17T09:46:16.570Z,21.23
2022-12-17T09:46:28.292Z,21.24
2022-12-17T09:46:39.726Z,21.24
2022-12-17T09:46:51.330Z,21.24
2022-12-17T09:47:02.621Z,21.24
2022-12-17T09:47:14.164Z,21.25
2022-12-17T09:47:25.445Z,21.26
2022-12-17T09:47:36.993Z,21.25
2022-12-17T09:47:48.269Z,21.26
2022-12-17T09:47:59.801Z,21.26
2022-12-17T09:48:11.077Z,21.27
2022-12-17T09:48:22.636Z,21.27
2022-12-17T09:48:33.923Z,21.27
2022-12-17T09:48:45.453Z,21.28
2022-12-17T09:48:56.730Z,21.28
2022-12-17T09:49:08.264Z,21.28
2022-12-17T09:49:19.541Z,21.29
2022-12-17T09:49:31.075Z,21.29
2022-12-17T09:49:42.361Z,21.29
2022-12-17T09:49:53.912Z,21.30
2022-12-17T09:50:05.195Z,21.30
2022-12-17T09:50:16.779Z,21.30
2022-12-17T09:50:28.056Z,21.31
2022-12-17T09:50:39.598Z,21.31
2022-12-17T09:50:50.881Z,21.32
2022-12-17T09:51:02.421Z,21.32
2022-12-17T09:51:13.695Z,21.33
2022-12-17T09:51:25.230Z,21.33
2022-12-17T09:51:36.518Z,21.33
2022-12-17T09:51:48.056Z,21.34
2022-12-17T09:51:59.348Z,21.34
2022-12-17T09:52:10.894Z,21.34
2022-12-17T09:52:22.175Z,21.35
2022-12-17T09:52:33.713Z,21.35
2022-12-17T09:52:45.013Z,21.35
2022-12-17T09:52:56.555Z,21.35
2022-12-17T09:53:07.829Z,21.35
2022-12-17T09:53:19.374Z,21.36
2022-12-17T09:53:30.648Z,21.37
2022-12-17T09:53:42.192Z,21.36
2022-12-17T09:53:53.481Z,21.37
2022-12-17T09:54:05.033Z,21.38
2022-12-17T09:54:16.330Z,21.38
2022-12-17T09:54:27.872Z,21.38
2022-12-17T09:54:39.249Z,21.39
2022-12-17T09:54:52.258Z,21.39
2022-12-17T09:55:02.193Z,21.37
2022-12-17T09:55:13.484Z,21.39
2022-12-17T09:55:25.077Z,21.39
2022-12-17T09:55:36.348Z,21.39
2022-12-17T09:55:47.892Z,21.39
2022-12-17T09:55:59.181Z,21.40
2022-12-17T09:56:10.738Z,21.40
2022-12-17T09:56:22.057Z,21.41
2022-12-17T09:56:33.608Z,21.41
2022-12-17T09:56:44.887Z,21.41
2022-12-17T09:56:56.438Z,21.42
2022-12-17T09:57:06.487Z,21.43
2022-12-17T09:57:18.022Z,21.43
2022-12-17T09:57:29.294Z,21.43
2022-12-17T09:57:40.826Z,21.43
2022-12-17T09:57:52.127Z,21.44
2022-12-17T09:58:03.672Z,21.44
2022-12-17T09:58:14.953Z,21.44
2022-12-17T09:58:26.508Z,21.44
2022-12-17T09:58:37.799Z,21.44
2022-12-17T09:58:49.349Z,21.45
2022-12-17T09:59:00.635Z,21.45
2022-12-17T09:59:12.189Z,21.46
2022-12-17T09:59:23.472Z,21.46
2022-12-17T09:59:35.021Z,21.46
2022-12-17T09:59:46.319Z,21.47
2022-12-17T09:59:57.867Z,21.47
2022-12-17T10:00:09.151Z,21.47
2022-12-17T10:00:20.686Z,21.47
2022-12-17T10:00:31.996Z,21.48
2022-12-17T10:00:43.539Z,21.48
2022-12-17T10:00:59.253Z,21.48
2022-12-17T10:01:06.797Z,21.46
2022-12-17T10:01:18.299Z,21.47
2022-12-17T10:01:30.001Z,21.47
2022-12-17T10:01:41.508Z,21.48
2022-12-17T10:01:53.295Z,21.49
2022-12-17T10:02:04.835Z,21.49
2022-12-17T10:02:16.732Z,21.50
2022-12-17T10:02:28.655Z,21.51
2022-12-17T10:02:40.337Z,21.51
2022-12-17T10:02:52.194Z,21.51
2022-12-17T10:03:03.882Z,21.52
2022-12-17T10:03:15.607Z,21.51
2022-12-17T10:03:27.033Z,21.52
2022-12-17T10:03:39.157Z,21.52
2022-12-17T10:03:51.047Z,21.53
2022-12-17T10:04:02.367Z,21.53
2022-12-17T10:04:13.932Z,21.53
2022-12-17T10:04:25.214Z,21.53
2022-12-17T10:04:36.746Z,21.54
2022-12-17T10:04:48.029Z,21.54
2022-12-17T10:04:59.567Z,21.55
2022-12-17T10:05:10.862Z,21.55
2022-12-17T10:05:22.413Z,21.55
2022-12-17T10:05:33.755Z,21.55
2022-12-17T10:05:45.297Z,21.56
2022-12-17T10:05:56.596Z,21.55
2022-12-17T10:06:08.129Z,21.56
2022-12-17T10:06:22.653Z,21.56
2022-12-17T10:06:29.938Z,21.55
2022-12-17T10:06:41.224Z,21.56
2022-12-17T10:06:52.814Z,21.57
2022-12-17T10:07:04.100Z,21.57
2022-12-17T10:07:15.641Z,21.57
2022-12-17T10:07:26.925Z,21.58
2022-12-17T10:07:38.463Z,21.57
2022-12-17T10:07:49.742Z,21.58
2022-12-17T10:08:01.287Z,21.58
2022-12-17T10:08:12.575Z,21.59
2022-12-17T10:08:24.114Z,21.59
2022-12-17T10:08:35.405Z,21.60
2022-12-17T10:08:46.953Z,21.60
2022-12-17T10:08:58.235Z,21.59
2022-12-17T10:09:09.787Z,21.60
2022-12-17T10:09:21.942Z,21.61
2022-12-17T10:09:33.241Z,21.61
2022-12-17T10:09:44.789Z,21.61
2022-12-17T10:09:56.108Z,21.61
2022-12-17T10:10:06.440Z,21.61
2022-12-17T10:10:18.034Z,21.61
2022-12-17T10:10:29.360Z,21.62
2022-12-17T10:10:40.934Z,21.62
2022-12-17T10:10:52.227Z,21.62
2022-12-17T10:11:03.797Z,21.63
2022-12-17T10:11:15.088Z,21.63
2022-12-17T10:11:31.264Z,21.63
2022-12-17T10:11:38.558Z,21.62
2022-12-17T10:11:49.831Z,21.62
2022-12-17T10:12:01.377Z,21.64
2022-12-17T10:12:12.660Z,21.64
2022-12-17T10:12:24.196Z,21.65
2022-12-17T10:12:35.505Z,21.65
2022-12-17T10:12:47.053Z,21.65
2022-12-17T10:12:58.333Z,21.65
2022-12-17T10:13:09.866Z,21.66
2022-12-17T10:13:21.152Z,21.66
2022-12-17T10:13:32.844Z,21.66
2022-12-17T10:13:44.196Z,21.66
2022-12-17T10:13:55.739Z,21.67
2022-12-17T10:14:07.027Z,21.66
2022-12-17T10:14:18.560Z,21.68
2022-12-17T10:14:29.839Z,21.68
2022-12-17T10:14:41.377Z,21.67
2022-12-17T10:14:52.651Z,21.69
2022-12-17T10:15:04.195Z,21.68
2022-12-17T10:15:15.502Z,21.69
2022-12-17T10:15:27.133Z,21.68
2022-12-17T10:15:38.497Z,21.69
2022-12-17T10:15:50.144Z,21.70
2022-12-17T10:16:01.595Z,21.70
2022-12-17T10:16:13.323Z,21.70
2022-12-17T10:16:24.705Z,21.70
2022-12-17T10:16:36.299Z,21.71
2022-12-17T10:16:47.574Z,21.71
2022-12-17T10:16:59.114Z,21.71
2022-12-17T10:17:12.172Z,21.71
2022-12-17T10:17:21.448Z,21.70
2022-12-17T10:17:32.983Z,21.71
2022-12-17T10:17:44.269Z,21.72
2022-12-17T10:17:55.806Z,21.72
2022-12-17T10:18:07.082Z,21.72
2022-12-17T10:18:18.623Z,21.73
2022-12-17T10:18:29.939Z,21.73
2022-12-17T10:18:41.474Z,21.74
2022-12-17T10:18:52.753Z,21.73
2022-12-17T10:19:04.375Z,21.74
2022-12-17T10:19:15.671Z,21.74
2022-12-17T10:19:27.230Z,21.74
2022-12-17T10:19:38.518Z,21.75
2022-12-17T10:19:50.053Z,21.75
2022-12-17T10:20:01.349Z,21.75
2022-12-17T10:20:12.896Z,21.76
2022-12-17T10:20:24.180Z,21.75
2022-12-17T10:20:35.726Z,21.76
2022-12-17T10:20:47.010Z,21.77
2022-12-17T10:20:58.605Z,21.77
2022-12-17T10:21:09.891Z,21.77
2022-12-17T10:21:21.547Z,21.77
2022-12-17T10:21:32.836Z,21.78
2022-12-17T10:21:44.382Z,21.77
2022-12-17T10:21:55.662Z,21.77
2022-12-17T10:22:07.219Z,21.78
2022-12-17T10:22:18.514Z,21.78
2022-12-17T10:22:30.067Z,21.79
2022-12-17T10:22:41.352Z,21.78
2022-12-17T10:22:52.895Z,21.79
2022-12-17T10:23:04.183Z,21.79
2022-12-17T10:23:15.719Z,21.81
2022-12-17T10:23:26.995Z,21.80
2022-12-17T10:23:39.037Z,21.80
2022-12-17T10:23:50.780Z,21.81
2022-12-17T10:24:02.065Z,21.81
2022-12-17T10:24:18.455Z,21.82
2022-12-17T10:24:25.530Z,21.80
2022-12-17T10:24:36.822Z,21.80
2022-12-17T10:24:48.367Z,21.81
2022-12-17T10:24:59.640Z,21.82
2022-12-17T10:25:11.193Z,21.82
2022-12-17T10:25:22.484Z,21.82
2022-12-17T10:25:34.029Z,21.83
2022-12-17T10:25:45.309Z,21.83
2022-12-17T10:25:56.852Z,21.83
2022-12-17T10:26:08.163Z,21.84
2022-12-17T10:26:19.708Z,21.84
2022-12-17T10:26:31.009Z,21.84
2022-12-17T10:26:42.556Z,21.84
2022-12-17T10:26:53.838Z,21.85
2022-12-17T10:27:05.387Z,21.84
2022-12-17T10:27:16.685Z,21.85
2022-12-17T10:27:28.236Z,21.85
2022-12-17T10:27:39.514Z,21.85
2022-12-17T10:27:51.061Z,21.86
2022-12-17T10:28:02.347Z,21.86
2022-12-17T10:28:13.888Z,21.86
2022-12-17T10:28:25.190Z,21.87
2022-12-17T10:28:36.757Z,21.88
2022-12-17T10:28:48.044Z,21.88
2022-12-17T10:28:59.627Z,21.88
2022-12-17T10:29:10.925Z,21.88
2022-12-17T10:29:22.472Z,21.88
2022-12-17T10:29:33.762Z,21.89
2022-12-17T10:29:48.111Z,21.89
2022-12-17T10:29:55.649Z,21.88
2022-12-17T10:30:06.923Z,21.89
2022-12-17T10:30:18.460Z,21.89
2022-12-17T10:30:29.748Z,21.90
2022-12-17T10:30:41.381Z,21.90
2022-12-17T10:30:52.736Z,21.90
2022-12-17T10:31:04.353Z,21.91
2022-12-17T10:31:15.788Z,21.90
2022-12-17T10:31:27.467Z,21.91
2022-12-17T10:31:38.905Z,21.91
2022-12-17T10:31:50.476Z,21.91
2022-12-17T10:32:01.765Z,21.91
2022-12-17T10:32:13.305Z,21.92
2022-12-17T10:32:24.608Z,21.92
2022-12-17T10:32:36.175Z,21.92
2022-12-17T10:32:47.465Z,21.93
2022-12-17T10:32:59.007Z,21.93
2022-12-17T10:33:10.286Z,21.93
2022-12-17T10:33:21.818Z,21.93
2022-12-17T10:33:33.406Z,21.94
2022-12-17T10:33:45.043Z,21.93
2022-12-17T10:33:56.323Z,21.94
2022-12-17T10:34:07.854Z,21.94
2022-12-17T10:34:19.136Z,21.94
2022-12-17T10:34:30.696Z,21.95
2022-12-17T10:34:41.998Z,21.95
2022-12-17T10:34:53.567Z,21.95
2022-12-17T10:35:05.713Z,21.95
2022-12-17T10:35:15.078Z,21.95
2022-12-17T10:35:26.624Z,21.95
2022-12-17T10:35:37.911Z,21.96
2022-12-17T10:35:49.462Z,21.96
2022-12-17T10:36:00.756Z,21.96
2022-12-17T10:36:12.297Z,21.97
2022-12-17T10:36:23.814Z,21.97
2022-12-17T10:36:35.368Z,21.97
2022-12-17T10:36:46.666Z,21.97
2022-12-17T10:36:58.232Z,21.97
2022-12-17T10:37:09.522Z,21.98
2022-12-17T10:37:21.081Z,21.98
2022-12-17T10:37:32.370Z,21.98
2022-12-17T10:37:43.934Z,21.98
2022-12-17T10:37:55.217Z,21.98
2022-12-17T10:38:06.760Z,21.99
2022-12-17T10:38:18.038Z,21.99
2022-12-17T10:38:29.586Z,21.99
2022-12-17T10:38:40.880Z,21.99
2022-12-17T10:38:52.420Z,22.00
2022-12-17T10:39:03.713Z,22.00
2022-12-17T10:39:15.255Z,22.00
2022-12-17T10:39:26.554Z,22.00
2022-12-17T10:39:38.094Z,22.01
2022-12-17T10:39:49.377Z,22.01
2022-12-17T10:40:00.920Z,22.01
2022-12-17T10:40:12.196Z,22.00
2022-12-17T10:40:23.754Z,22.01
2022-12-17T10:40:35.033Z,22.01
2022-12-17T10:40:46.571Z,22.01
2022-12-17T10:40:57.843Z,22.02
2022-12-17T10:41:09.390Z,22.02
2022-12-17T10:41:20.681Z,22.02
2022-12-17T10:41:32.260Z,22.02
2022-12-17T10:41:43.539Z,22.03
2022-12-17T10:41:55.083Z,22.02
2022-12-17T10:42:06.370Z,22.02
2022-12-17T10:42:17.901Z,22.03
2022-12-17T10:42:34.394Z,22.03
2022-12-17T10:42:41.101Z,22.01
2022-12-17T10:42:52.374Z,22.02
2022-12-17T10:43:03.909Z,22.03
2022-12-17T10:43:15.185Z,22.03
2022-12-17T10:43:26.716Z,22.04
2022-12-17T10:43:38.315Z,22.03
2022-12-17T10:43:50.109Z,22.03
2022-12-17T10:44:01.402Z,22.03
2022-12-17T10:44:15.811Z,22.05
2022-12-17T10:44:25.013Z,22.04
2022-12-17T10:44:36.590Z,22.04
2022-12-17T10:44:47.967Z,22.05
2022-12-17T10:44:59.534Z,22.05
2022-12-17T10:45:10.818Z,22.05
2022-12-17T10:45:22.377Z,22.05
2022-12-17T10:45:33.666Z,22.05
2022-12-17T10:45:45.219Z,22.06
2022-12-17T10:45:56.604Z,22.07
2022-12-17T10:46:08.204Z,22.07
2022-12-17T10:46:19.600Z,22.06
2022-12-17T10:46:31.237Z,22.06
2022-12-17T10:46:42.741Z,22.07
2022-12-17T10:46:54.530Z,22.07
2022-12-17T10:47:05.847Z,22.07
2022-12-17T10:47:17.396Z,22.08
2022-12-17T10:47:28.695Z,22.08
2022-12-17T10:47:40.234Z,22.08
2022-12-17T10:47:51.514Z,22.08
2022-12-17T10:48:03.044Z,22.08
2022-12-17T10:48:14.319Z,22.09
2022-12-17T10:48:25.848Z,22.09
2022-12-17T10:48:37.153Z,22.09
2022-12-17T10:48:48.699Z,22.10
2022-12-17T10:48:59.984Z,22.10
2022-12-17T10:49:11.863Z,22.10
2022-12-17T10:49:23.183Z,22.09
2022-12-17T10:49:34.717Z,22.10
2022-12-17T10:49:46.001Z,22.10
2022-12-17T10:49:57.535Z,22.10
2022-12-17T10:50:08.812Z,22.10
2022-12-17T10:50:20.363Z,22.11
2022-12-17T10:50:31.648Z,22.11
2022-12-17T10:50:43.216Z,22.11
2022-12-17T10:50:54.502Z,22.11
2022-12-17T10:51:06.041Z,22.11
2022-12-17T10:51:17.320Z,22.12
2022-12-17T10:51:28.851Z,22.12
2022-12-17T10:51:40.135Z,22.12
2022-12-17T10:51:51.731Z,22.12
2022-12-17T10:52:03.011Z,22.12
2022-12-17T10:52:14.546Z,22.12
2022-12-17T10:52:25.829Z,22.13
2022-12-17T10:52:37.383Z,22.13
2022-12-17T10:52:48.681Z,22.13
2022-12-17T10:53:00.238Z,22.14
2022-12-17T10:53:11.527Z,22.14
2022-12-17T10:53:23.061Z,22.14
2022-12-17T10:53:34.789Z,22.15
2022-12-17T10:53:46.574Z,22.14
2022-12-17T10:53:57.854Z,22.14
2022-12-17T10:54:09.415Z,22.15
2022-12-17T10:54:20.711Z,22.15
2022-12-17T10:54:32.265Z,22.15
2022-12-17T10:54:48.731Z,22.15
2022-12-17T10:54:55.492Z,22.13
2022-12-17T10:55:06.782Z,22.14
2022-12-17T10:55:18.324Z,22.15
2022-12-17T10:55:29.621Z,22.15
2022-12-17T10:55:41.164Z,22.16
2022-12-17T10:55:52.436Z,22.16
2022-12-17T10:56:03.971Z,22.16
2022-12-17T10:56:15.264Z,22.16
2022-12-17T10:56:26.823Z,22.17
2022-12-17T10:56:38.105Z,22.17
2022-12-17T10:56:49.662Z,22.17
2022-12-17T10:57:00.991Z,22.17
2022-12-17T10:57:12.546Z,22.18
2022-12-17T10:57:23.835Z,22.18
2022-12-17T10:57:35.385Z,22.18
2022-12-17T10:57:46.690Z,22.18
2022-12-17T10:57:58.228Z,22.18
2022-12-17T10:58:09.505Z,22.19
2022-12-17T10:58:21.045Z,22.19
2022-12-17T10:58:32.343Z,22.19
2022-12-17T10:58:43.907Z,22.19
2022-12-17T10:58:55.223Z,22.18
2022-12-17T10:59:06.761Z,22.20
2022-12-17T10:59:18.052Z,22.20
2022-12-17T10:59:29.595Z,22.20
2022-12-17T10:59:40.879Z,22.20
2022-12-17T10:59:52.431Z,22.20
2022-12-17T11:00:03.731Z,22.20
2022-12-17T11:00:15.413Z,22.20